Longview, Texas
Current Conditions -  °F | °C
As of 12:53 PM on Saturday 25 Oct 2014 (Local Time) from KGGG Reporting Station
Clear Clear  
Wind Chill: 80°   Ceiling: Unl
Heat Index: 81°   Visibility: 10mi
Dew Point: 61°   Wind: 6mph
Humidity: 52%   Direction: NA
Pressure: 30.14"   Gusts: NA
Location:  32.5°N, 94.74°W
Report Text: KGGG 251753Z VRB05KT 10SM CLR 27/16 A3014 RMK AO2 SLP201 T02670161 10272 20144 58012
Loading
Personal Weather Stations






























Interactive Weather Map
Tropical Storm Tracking
New forecast layout! Learn more

10-Day Weather Forecast

Advertisements
Track Severe Weather on mobile